Time;durP1;ratioP1;P1;durP2;ratioP2;P2;SDS_P1;SDS_P2;PMS_P1;PMS_P2;Temp;Humidity;BMP_temperature;BMP_pressure;BME280_temperature;BME280_humidity;BME280_pressure;Samples;Min_cycle;Max_cycle;Signal;HPM_P1;HPM_P2
2023/04/30 00:00:55;;;;;;;69.10;35.85;;;7.90;99.90;;;;;;5008829;28;20100;-65
2023/04/30 00:03:21;;;;;;;70.65;35.55;;;8.00;99.90;;;;;;5005771;28;20383;-64
2023/04/30 00:05:50;;;;;;;64.25;34.22;;;7.90;99.90;;;;;;4993764;28;20024;-63
2023/04/30 00:08:16;;;;;;;64.70;34.47;;;7.90;99.90;;;;;;5008020;28;20029;-65
2023/04/30 00:10:41;;;;;;;59.03;31.10;;;7.90;99.90;;;;;;5004061;28;20025;-63
2023/04/30 00:13:09;;;;;;;61.13;33.70;;;7.80;99.90;;;;;;5006037;28;20024;-63
2023/04/30 00:15:35;;;;;;;62.03;32.85;;;7.80;99.90;;;;;;5007005;28;20017;-64
2023/04/30 00:18:00;;;;;;;67.38;33.53;;;7.70;99.90;;;;;;5006950;28;20022;-64
2023/04/30 00:20:26;;;;;;;58.53;31.92;;;7.70;99.90;;;;;;5003916;28;20446;-66
2023/04/30 00:22:51;;;;;;;56.10;32.03;;;7.70;99.90;;;;;;4990216;28;20412;-62
2023/04/30 00:25:17;;;;;;;57.28;31.40;;;7.70;99.90;;;;;;5008037;28;20025;-64
2023/04/30 00:27:43;;;;;;;59.08;32.70;;;7.60;99.90;;;;;;5008313;28;20030;-63
2023/04/30 00:30:09;;;;;;;59.35;31.60;;;7.50;99.90;;;;;;5000905;28;20402;-64
2023/04/30 00:32:34;;;;;;;55.67;31.52;;;7.40;99.90;;;;;;5003760;28;20023;-63
2023/04/30 00:35:00;;;;;;;59.15;30.73;;;7.30;99.90;;;;;;5000469;28;20097;-64
2023/04/30 00:37:25;;;;;;;54.70;29.55;;;7.30;99.90;;;;;;5004918;28;20026;-66
2023/04/30 00:39:51;;;;;;;51.15;30.30;;;7.30;99.90;;;;;;5003120;28;20400;-65
2023/04/30 00:42:16;;;;;;;53.40;27.70;;;7.30;99.90;;;;;;5004804;28;20109;-65
2023/04/30 00:44:42;;;;;;;50.65;29.23;;;7.40;99.90;;;;;;5003858;28;20120;-63
2023/04/30 00:47:08;;;;;;;48.47;27.00;;;7.40;99.90;;;;;;4997077;28;20014;-64
2023/04/30 00:49:33;;;;;;;49.45;29.08;;;7.50;99.90;;;;;;5004504;28;20026;-66
2023/04/30 00:52:00;;;;;;;51.88;27.42;;;7.50;99.90;;;;;;5009329;28;20018;-66
2023/04/30 00:54:25;;;;;;;56.97;29.25;;;7.50;99.90;;;;;;5039009;22;20075;-66
2023/04/30 00:56:51;;;;;;;53.25;29.50;;;7.60;99.90;;;;;;5029688;28;20030;-66
2023/04/30 00:59:17;;;;;;;56.92;31.77;;;7.60;99.90;;;;;;5007654;28;20125;-65
2023/04/30 01:01:42;;;;;;;52.00;30.15;;;7.60;99.90;;;;;;5031215;28;20107;-67
2023/04/30 01:04:08;;;;;;;55.80;30.02;;;7.60;99.90;;;;;;5028159;28;20034;-66
2023/04/30 01:06:34;;;;;;;53.08;29.58;;;7.60;99.90;;;;;;5031638;28;20033;-65
2023/04/30 01:09:00;;;;;;;59.47;30.85;;;7.60;99.90;;;;;;5027804;28;20503;-66
2023/04/30 01:11:31;;;;;;;60.03;30.60;;;7.60;99.90;;;;;;5024728;28;20034;-67
2023/04/30 01:14:24;;;;;;;58.15;30.45;;;7.50;99.90;;;;;;5023599;28;20458;-67
2023/04/30 01:17:28;;;;;;;55.47;29.75;;;7.60;99.90;;;;;;5033765;28;20054;-67
2023/04/30 01:19:55;;;;;;;56.87;28.53;;;7.50;99.90;;;;;;5035785;28;20029;-68
2023/04/30 01:22:26;;;;;;;59.92;29.83;;;7.50;99.90;;;;;;5032182;28;20037;-68
2023/04/30 01:25:11;;;;;;;54.17;30.27;;;7.50;99.90;;;;;;5014169;28;20419;-65
2023/04/30 01:28:06;;;;;;;51.10;27.55;;;7.40;99.90;;;;;;5024907;28;20040;-66
2023/04/30 01:30:33;;;;;;;48.72;29.13;;;7.30;99.90;;;;;;5008391;28;20021;-67
2023/04/30 01:32:59;;;;;;;53.90;29.48;;;7.20;99.90;;;;;;5040706;28;20025;-66
2023/04/30 01:35:52;;;;;;;57.22;28.23;;;7.20;99.90;;;;;;5036624;28;20482;-67
2023/04/30 01:38:33;;;;;;;48.88;28.27;;;7.10;99.90;;;;;;5018777;28;20025;-68
2023/04/30 01:41:21;;;;;;;43.63;26.95;;;7.00;99.90;;;;;;5034880;28;20565;-65
2023/04/30 01:44:18;;;;;;;52.35;27.27;;;7.00;99.90;;;;;;5018919;28;20380;-66
2023/04/30 01:47:03;;;;;;;49.25;25.95;;;6.90;99.90;;;;;;5029301;28;20577;-67
2023/04/30 01:49:50;;;;;;;50.15;27.48;;;6.80;99.90;;;;;;5024184;28;20041;-67
2023/04/30 01:52:31;;;;;;;44.80;25.10;;;6.70;99.90;;;;;;5021757;28;21054;-66
2023/04/30 01:55:07;;;;;;;54.45;26.35;;;6.60;99.90;;;;;;5025958;28;20095;-67
2023/04/30 01:57:40;;;;;;;48.03;25.13;;;6.60;99.90;;;;;;5028728;28;20029;-66
2023/04/30 02:00:10;;;;;;;49.67;25.23;;;6.60;99.90;;;;;;5026115;28;20064;-67
2023/04/30 02:02:36;;;;;;;44.97;25.50;;;6.50;99.90;;;;;;5007103;28;20402;-66
2023/04/30 02:05:02;;;;;;;41.00;24.77;;;6.50;99.90;;;;;;5027681;28;20398;-66
2023/04/30 02:07:42;;;;;;;41.65;23.58;;;6.40;99.90;;;;;;5029507;28;20049;-66
2023/04/30 02:10:09;;;;;;;47.75;24.88;;;6.40;99.90;;;;;;5029237;28;20013;-67
2023/04/30 02:12:34;;;;;;;42.10;24.27;;;6.30;99.90;;;;;;5029304;28;20483;-65
2023/04/30 02:15:01;;;;;;;43.45;23.17;;;6.30;99.90;;;;;;5028167;28;20037;-66
2023/04/30 02:17:26;;;;;;;37.97;21.58;;;6.40;99.90;;;;;;5028296;28;20029;-67
2023/04/30 02:19:52;;;;;;;39.97;21.38;;;6.40;99.90;;;;;;5032143;28;20044;-65
2023/04/30 02:22:17;;;;;;;40.42;21.88;;;6.40;99.90;;;;;;5028589;28;20033;-66
2023/04/30 02:24:43;;;;;;;45.38;22.15;;;6.40;99.90;;;;;;5031339;28;20167;-65
2023/04/30 02:27:09;;;;;;;35.95;19.58;;;6.40;99.90;;;;;;5023079;28;20495;-67
2023/04/30 02:29:34;;;;;;;35.00;19.00;;;6.50;99.90;;;;;;5033151;28;20033;-67
2023/04/30 02:32:00;;;;;;;39.90;20.13;;;6.50;99.90;;;;;;5033144;28;20029;-66
2023/04/30 02:34:26;;;;;;;35.17;19.55;;;6.50;99.90;;;;;;5036697;28;20024;-65
2023/04/30 02:36:51;;;;;;;36.20;19.67;;;6.60;99.90;;;;;;5039385;28;20041;-66
2023/04/30 02:39:17;;;;;;;33.22;17.92;;;6.60;99.90;;;;;;5035469;28;20104;-65
2023/04/30 02:41:43;;;;;;;29.52;17.85;;;6.60;99.90;;;;;;5040842;28;20025;-66
2023/04/30 02:44:08;;;;;;;35.25;19.30;;;6.60;99.90;;;;;;5031588;28;20025;-67
2023/04/30 02:46:34;;;;;;;29.05;16.92;;;6.60;99.90;;;;;;5028754;28;20500;-67
2023/04/30 02:49:00;;;;;;;29.27;18.10;;;6.70;99.90;;;;;;5006464;28;20025;-66
2023/04/30 02:51:25;;;;;;;32.25;19.25;;;6.70;99.90;;;;;;5022376;28;20033;-66
2023/04/30 02:53:51;;;;;;;34.33;19.88;;;6.60;99.90;;;;;;5021220;28;20064;-66
2023/04/30 02:56:16;;;;;;;39.28;20.67;;;6.60;99.90;;;;;;5028139;28;20049;-66
2023/04/30 02:58:42;;;;;;;36.45;20.55;;;6.50;99.90;;;;;;5022718;28;20037;-65
2023/04/30 03:01:07;;;;;;;36.90;20.13;;;6.40;99.90;;;;;;5021809;28;20510;-66
2023/04/30 03:03:33;;;;;;;30.60;17.70;;;6.30;99.90;;;;;;5027012;28;20081;-68
2023/04/30 03:05:59;;;;;;;32.58;17.45;;;6.30;99.90;;;;;;5028619;28;20027;-65
2023/04/30 03:08:25;;;;;;;30.02;16.13;;;6.30;99.90;;;;;;5026956;28;20483;-67
2023/04/30 03:10:51;;;;;;;33.72;17.73;;;6.30;99.90;;;;;;5029108;28;20027;-66
2023/04/30 03:13:17;;;;;;;29.25;17.70;;;6.30;99.90;;;;;;5031476;28;20029;-65
2023/04/30 03:15:43;;;;;;;28.63;16.00;;;6.30;99.90;;;;;;5024314;28;20033;-65
2023/04/30 03:18:09;;;;;;;33.60;17.88;;;6.30;99.90;;;;;;5030345;28;20032;-68
2023/04/30 03:20:35;;;;;;;28.88;15.60;;;6.30;99.90;;;;;;5028228;28;20029;-67
2023/04/30 03:23:00;;;;;;;24.50;14.07;;;6.40;99.90;;;;;;5028863;28;20033;-66
2023/04/30 03:25:26;;;;;;;27.23;16.10;;;6.50;99.90;;;;;;5004243;28;20479;-67
2023/04/30 03:27:52;;;;;;;34.75;17.00;;;6.50;99.90;;;;;;5022021;28;20029;-68
2023/04/30 03:30:17;;;;;;;23.45;13.80;;;6.50;99.90;;;;;;5027677;28;21216;-66
2023/04/30 03:32:43;;;;;;;24.10;13.77;;;6.50;99.90;;;;;;5023779;28;20395;-66
2023/04/30 03:35:09;;;;;;;27.38;15.35;;;6.40;99.90;;;;;;5018309;28;20041;-66
2023/04/30 03:37:34;;;;;;;26.55;15.15;;;6.40;99.90;;;;;;5021193;28;20041;-67
2023/04/30 03:40:00;;;;;;;30.30;14.68;;;6.40;99.90;;;;;;5030921;28;20026;-67
2023/04/30 03:42:25;;;;;;;26.58;15.98;;;6.40;99.90;;;;;;5029283;28;20026;-65
2023/04/30 03:44:51;;;;;;;30.30;16.38;;;6.30;99.90;;;;;;5021307;28;20096;-67
2023/04/30 03:47:17;;;;;;;33.83;16.70;;;6.20;99.90;;;;;;5021171;28;20053;-66
2023/04/30 03:49:42;;;;;;;28.75;15.77;;;6.10;99.90;;;;;;5032542;28;20021;-67
2023/04/30 03:52:08;;;;;;;31.42;16.05;;;6.00;99.90;;;;;;5032368;28;20509;-68
2023/04/30 03:54:33;;;;;;;27.65;15.02;;;5.80;99.90;;;;;;5022954;28;20114;-66
2023/04/30 03:57:02;;;;;;;30.33;17.00;;;5.80;99.90;;;;;;5021620;28;20033;-65
2023/04/30 03:59:28;;;;;;;35.67;16.83;;;5.70;99.90;;;;;;5022303;28;20499;-66
2023/04/30 04:01:54;;;;;;;31.77;17.35;;;5.70;99.90;;;;;;5007316;28;20064;-66
2023/04/30 04:04:20;;;;;;;31.90;17.48;;;5.70;99.90;;;;;;5024214;28;20479;-66
2023/04/30 04:06:45;;;;;;;31.40;16.15;;;5.70;99.90;;;;;;5026717;28;20053;-67
2023/04/30 04:09:11;;;;;;;29.55;16.63;;;5.70;99.90;;;;;;5027655;28;20391;-66
2023/04/30 04:11:37;;;;;;;29.70;15.32;;;5.70;99.90;;;;;;5027320;28;20036;-68
2023/04/30 04:14:02;;;;;;;30.67;15.98;;;5.60;99.90;;;;;;5024981;28;20087;-68
2023/04/30 04:16:28;;;;;;;25.42;15.13;;;5.50;99.90;;;;;;5027131;28;20072;-67
2023/04/30 04:18:54;;;;;;;34.40;17.50;;;5.40;99.90;;;;;;5027304;28;20021;-69
2023/04/30 04:21:19;;;;;;;36.15;18.38;;;5.50;99.90;;;;;;5027252;28;20110;-66
2023/04/30 04:23:45;;;;;;;30.42;17.05;;;5.60;99.90;;;;;;5022128;28;20087;-66
2023/04/30 04:26:11;;;;;;;34.13;17.10;;;5.60;99.90;;;;;;5009405;28;20431;-65
2023/04/30 04:28:37;;;;;;;32.67;17.73;;;5.60;99.90;;;;;;5026787;28;20035;-66
2023/04/30 04:31:03;;;;;;;37.90;17.33;;;5.60;99.90;;;;;;5027790;28;20033;-66
2023/04/30 04:33:29;;;;;;;27.60;17.08;;;5.60;99.90;;;;;;5028466;28;20029;-67
2023/04/30 04:35:56;;;;;;;27.48;15.35;;;5.60;99.90;;;;;;5020370;28;20071;-66
2023/04/30 04:38:22;;;;;;;39.28;16.88;;;5.60;99.90;;;;;;5024236;28;20026;-67
2023/04/30 04:40:52;;;;;;;33.92;16.92;;;5.60;99.90;;;;;;5027506;28;20063;-66
2023/04/30 04:43:17;;;;;;;27.80;15.18;;;5.60;99.90;;;;;;5027766;28;20161;-66
2023/04/30 04:45:43;;;;;;;29.63;16.48;;;5.70;99.90;;;;;;5020003;28;20096;-66
2023/04/30 04:48:09;;;;;;;33.22;16.10;;;5.80;99.90;;;;;;5027006;28;20091;-65
2023/04/30 04:50:35;;;;;;;45.47;15.75;;;5.80;99.90;;;;;;5024721;28;20033;-68
2023/04/30 04:53:00;;;;;;;27.77;15.25;;;5.90;99.90;;;;;;5023513;28;20044;-69
2023/04/30 04:55:26;;;;;;;32.47;17.17;;;6.00;99.90;;;;;;5023093;28;20108;-66
2023/04/30 04:57:51;;;;;;;28.15;14.98;;;6.00;99.90;;;;;;5026481;28;20036;-66
2023/04/30 05:00:17;;;;;;;26.65;16.02;;;6.10;99.90;;;;;;5025887;28;20065;-66
2023/04/30 05:02:43;;;;;;;24.25;16.05;;;6.20;99.90;;;;;;5027243;28;20029;-64
2023/04/30 05:05:09;;;;;;;22.92;13.65;;;6.90;99.90;;;;;;5023759;28;20064;-65
2023/04/30 05:07:35;;;;;;;23.73;11.30;;;8.00;99.90;;;;;;5028309;28;20045;-66
2023/04/30 05:10:01;;;;;;;27.92;10.00;;;9.40;99.90;;;;;;5028798;28;20053;-65
2023/04/30 05:12:26;;;;;;;17.23;9.63;;;10.70;99.90;;;;;;5024626;28;20034;-67
2023/04/30 05:14:52;;;;;;;14.40;9.20;;;11.70;99.90;;;;;;5024513;28;20037;-66
2023/04/30 05:17:17;;;;;;;15.57;8.68;;;12.60;99.90;;;;;;5022707;28;20080;-67
2023/04/30 05:19:44;;;;;;;14.05;9.25;;;13.20;99.90;;;;;;5025188;28;20034;-67
2023/04/30 05:22:09;;;;;;;20.80;9.65;;;13.80;99.90;;;;;;5017570;28;20479;-67
2023/04/30 05:24:35;;;;;;;15.38;8.00;;;14.10;99.90;;;;;;5021374;28;20060;-67
2023/04/30 05:27:04;;;;;;;10.00;7.28;;;14.20;99.90;;;;;;5003823;28;20136;-66
2023/04/30 05:29:30;;;;;;;14.55;7.72;;;14.10;99.90;;;;;;5018074;28;20193;-66
2023/04/30 05:31:56;;;;;;;13.55;8.75;;;14.10;99.90;;;;;;5019428;28;20052;-68
2023/04/30 05:34:21;;;;;;;12.15;7.70;;;14.40;99.90;;;;;;5021431;28;20033;-66
2023/04/30 05:36:47;;;;;;;13.27;7.95;;;14.90;99.70;;;;;;5025677;28;20029;-66
2023/04/30 05:39:13;;;;;;;14.18;8.50;;;15.40;98.10;;;;;;5023923;28;20025;-67
2023/04/30 05:41:38;;;;;;;13.63;7.43;;;15.60;97.70;;;;;;5004334;28;20033;-65
2023/04/30 05:44:04;;;;;;;16.27;8.23;;;16.10;96.70;;;;;;5026164;28;20037;-66
2023/04/30 05:46:30;;;;;;;14.48;7.50;;;16.60;96.00;;;;;;5030633;28;20112;-68
2023/04/30 05:48:55;;;;;;;12.45;7.35;;;17.00;94.60;;;;;;5025133;28;20104;-67
2023/04/30 05:51:21;;;;;;;12.60;7.30;;;17.30;93.90;;;;;;5023374;28;21415;-66
2023/04/30 05:53:46;;;;;;;10.35;6.82;;;17.50;94.20;;;;;;5028378;28;20061;-66
2023/04/30 05:56:12;;;;;;;12.18;8.38;;;17.40;93.90;;;;;;5022807;28;20490;-67
2023/04/30 05:58:38;;;;;;;11.55;6.53;;;18.30;92.60;;;;;;5025994;28;20030;-68
2023/04/30 06:01:04;;;;;;;12.80;7.10;;;18.80;91.50;;;;;;5028314;28;20025;-66
2023/04/30 06:03:30;;;;;;;13.80;6.78;;;19.20;90.30;;;;;;5012938;28;20063;-68
2023/04/30 06:05:56;;;;;;;8.88;7.07;;;19.80;90.30;;;;;;5029511;28;20014;-68
2023/04/30 06:08:21;;;;;;;10.95;7.53;;;20.70;85.90;;;;;;5027450;28;20033;-68
2023/04/30 06:10:47;;;;;;;12.73;7.38;;;20.30;85.80;;;;;;5031695;28;20022;-67
2023/04/30 06:13:13;;;;;;;7.18;6.13;;;19.60;87.40;;;;;;5036118;28;20030;-67
2023/04/30 06:15:40;;;;;;;9.48;6.45;;;19.30;89.30;;;;;;5025641;28;20513;-68
2023/04/30 06:18:06;;;;;;;9.45;6.60;;;20.90;84.20;;;;;;5028242;28;20025;-67
2023/04/30 06:20:32;;;;;;;8.90;6.63;;;21.20;83.90;;;;;;5022678;28;20030;-68
2023/04/30 06:22:58;;;;;;;12.70;7.40;;;21.20;82.00;;;;;;5028792;28;20084;-68
2023/04/30 06:25:25;;;;;;;9.10;6.32;;;20.50;84.80;;;;;;5030304;28;20112;-68
2023/04/30 06:27:52;;;;;;;8.68;6.63;;;20.60;84.10;;;;;;5013917;28;20041;-67
2023/04/30 06:30:18;;;;;;;8.40;6.78;;;20.60;83.30;;;;;;5024535;28;20048;-67
2023/04/30 06:32:44;;;;;;;7.97;6.40;;;21.40;81.80;;;;;;5029805;28;20450;-67
2023/04/30 06:35:10;;;;;;;9.32;6.88;;;21.40;81.80;;;;;;5013623;28;20026;-68
2023/04/30 06:37:36;;;;;;;10.73;6.88;;;21.60;82.10;;;;;;5025626;28;20040;-67
2023/04/30 06:40:04;;;;;;;8.50;6.63;;;21.60;79.80;;;;;;5028968;28;20037;-68
2023/04/30 06:42:34;;;;;;;10.05;6.57;;;22.70;78.50;;;;;;5028614;28;20029;-68
2023/04/30 06:45:05;;;;;;;8.85;6.22;;;22.50;79.50;;;;;;5007809;28;20095;-69
2023/04/30 06:47:35;;;;;;;9.00;6.35;;;23.60;75.10;;;;;;5026823;28;20076;-67
2023/04/30 06:50:01;;;;;;;10.88;6.32;;;23.80;72.50;;;;;;5030368;28;20522;-67
2023/04/30 06:52:27;;;;;;;10.90;6.50;;;24.10;71.90;;;;;;5027793;28;20044;-68
2023/04/30 06:54:52;;;;;;;9.38;6.88;;;23.30;74.90;;;;;;5026595;28;20041;-68
2023/04/30 06:57:18;;;;;;;8.75;5.78;;;23.80;74.40;;;;;;5029033;28;20109;-67
2023/04/30 06:59:43;;;;;;;9.50;5.57;;;23.70;74.90;;;;;;5025605;28;20095;-68
2023/04/30 07:02:09;;;;;;;8.77;6.10;;;24.90;72.70;;;;;;5027912;28;20037;-68
2023/04/30 07:04:35;;;;;;;8.15;6.07;;;24.50;70.30;;;;;;5007648;28;20387;-68
2023/04/30 07:07:01;;;;;;;14.73;5.30;;;23.80;73.50;;;;;;5037580;23;20038;-64
2023/04/30 07:09:27;;;;;;;8.27;6.03;;;23.50;74.60;;;;;;4989803;28;20092;-65
2023/04/30 07:11:53;;;;;;;9.60;6.47;;;23.40;73.00;;;;;;5007012;28;20060;-64
2023/04/30 07:14:20;;;;;;;7.50;6.25;;;23.30;73.60;;;;;;5002755;28;20018;-65
2023/04/30 07:16:45;;;;;;;10.38;7.35;;;23.90;71.80;;;;;;5007431;28;20030;-64
2023/04/30 07:19:11;;;;;;;9.00;5.50;;;23.80;70.90;;;;;;5007161;28;20077;-65
2023/04/30 07:21:36;;;;;;;9.50;6.07;;;23.70;70.80;;;;;;5007999;28;20030;-65
2023/04/30 07:24:02;;;;;;;9.15;5.38;;;24.00;71.50;;;;;;4999323;28;21902;-65
2023/04/30 07:26:28;;;;;;;7.35;5.30;;;25.00;68.70;;;;;;5003126;28;20034;-64
2023/04/30 07:28:54;;;;;;;10.57;5.82;;;26.00;66.70;;;;;;4986965;28;20050;-65
2023/04/30 07:31:19;;;;;;;6.10;5.43;;;25.90;66.60;;;;;;5001898;28;20483;-65
2023/04/30 07:33:45;;;;;;;7.38;5.63;;;26.00;65.70;;;;;;5018076;28;20449;-65
2023/04/30 07:36:11;;;;;;;10.63;5.90;;;25.50;67.30;;;;;;5001694;28;20109;-65
2023/04/30 07:38:36;;;;;;;8.50;5.88;;;26.00;63.90;;;;;;5001526;28;20040;-66
2023/04/30 07:41:03;;;;;;;10.13;5.75;;;26.50;64.60;;;;;;5009918;28;20033;-64
2023/04/30 07:43:29;;;;;;;10.40;5.50;;;27.00;63.60;;;;;;4990972;28;20029;-64
2023/04/30 07:45:54;;;;;;;7.28;5.07;;;25.70;63.90;;;;;;5003104;28;21023;-65
2023/04/30 07:48:20;;;;;;;9.55;4.90;;;25.90;63.90;;;;;;5000375;28;20075;-65
2023/04/30 07:50:48;;;;;;;8.10;5.50;;;25.70;63.50;;;;;;5001217;28;20037;-65
2023/04/30 07:53:14;;;;;;;6.85;4.90;;;26.40;66.00;;;;;;4999101;28;20533;-64
2023/04/30 07:55:40;;;;;;;9.05;5.68;;;27.10;62.00;;;;;;5002181;28;20030;-64
2023/04/30 07:58:05;;;;;;;10.15;5.35;;;27.00;60.40;;;;;;4993431;28;20037;-64
2023/04/30 08:00:31;;;;;;;7.30;4.20;;;27.20;60.20;;;;;;5005271;28;20041;-64
2023/04/30 08:02:59;;;;;;;7.75;5.00;;;26.70;59.20;;;;;;5007895;28;20080;-65
2023/04/30 08:05:27;;;;;;;5.72;4.68;;;25.90;62.20;;;;;;5006956;28;20025;-64
2023/04/30 08:07:53;;;;;;;8.10;4.97;;;26.80;60.00;;;;;;5005371;28;20488;-65
2023/04/30 08:10:19;;;;;;;7.60;4.22;;;26.10;60.80;;;;;;5006286;28;20033;-65
2023/04/30 08:12:44;;;;;;;7.28;3.85;;;25.80;61.30;;;;;;5008417;28;20125;-65
2023/04/30 08:15:10;;;;;;;4.35;3.58;;;26.10;63.20;;;;;;5005352;28;20036;-64
2023/04/30 08:17:35;;;;;;;4.18;2.88;;;26.30;59.90;;;;;;5005830;28;20030;-65
2023/04/30 08:20:03;;;;;;;3.65;2.33;;;27.50;57.60;;;;;;5005300;28;20026;-65
2023/04/30 08:22:29;;;;;;;6.40;2.67;;;27.70;55.40;;;;;;5003241;28;20068;-64
2023/04/30 08:24:55;;;;;;;4.45;2.22;;;26.10;59.00;;;;;;5008022;28;20065;-65
2023/04/30 08:27:21;;;;;;;4.28;2.10;;;26.70;58.60;;;;;;5004990;28;20490;-64
2023/04/30 08:29:47;;;;;;;2.60;1.70;;;26.40;59.10;;;;;;4988768;28;20415;-65
2023/04/30 08:32:12;;;;;;;2.78;1.45;;;27.00;58.20;;;;;;5001050;28;20034;-64
2023/04/30 08:34:39;;;;;;;4.28;1.70;;;27.70;55.70;;;;;;5006994;28;20041;-65
2023/04/30 08:37:06;;;;;;;4.10;1.80;;;27.00;54.30;;;;;;5004908;28;20091;-65
2023/04/30 08:39:32;;;;;;;2.80;1.80;;;26.20;55.50;;;;;;5008100;28;20036;-64
2023/04/30 08:42:02;;;;;;;2.30;1.65;;;25.60;56.50;;;;;;5008350;28;20404;-65
2023/04/30 08:44:29;;;;;;;2.28;1.58;;;26.00;56.20;;;;;;5004295;28;20045;-65
2023/04/30 08:46:56;;;;;;;5.28;2.58;;;26.80;56.30;;;;;;5005052;28;20075;-65
2023/04/30 08:49:23;;;;;;;3.05;2.10;;;26.90;55.10;;;;;;5007638;28;20479;-64
2023/04/30 08:51:50;;;;;;;3.45;1.92;;;26.70;56.90;;;;;;4994704;28;20029;-65
2023/04/30 08:54:17;;;;;;;4.95;1.70;;;26.70;54.10;;;;;;5006878;28;20025;-65
2023/04/30 08:56:46;;;;;;;3.92;1.63;;;26.50;53.40;;;;;;5007523;28;20034;-65
2023/04/30 08:59:12;;;;;;;2.90;1.58;;;25.90;53.40;;;;;;5004224;28;20045;-65
2023/04/30 09:01:38;;;;;;;4.45;1.67;;;26.20;54.10;;;;;;5005113;28;20101;-65
2023/04/30 09:04:05;;;;;;;1.48;0.90;;;26.20;55.40;;;;;;5011940;28;20156;-65
2023/04/30 09:06:30;;;;;;;1.77;0.88;;;26.70;52.00;;;;;;5004483;28;20555;-65
2023/04/30 09:08:56;;;;;;;0.68;0.60;;;25.80;53.40;;;;;;5008212;28;20112;-65
2023/04/30 09:11:31;;;;;;;2.15;0.88;;;26.40;53.00;;;;;;5007836;28;20029;-64
2023/04/30 09:13:58;;;;;;;1.52;1.25;;;25.90;52.80;;;;;;5007520;28;20044;-64
2023/04/30 09:16:25;;;;;;;3.53;0.88;;;25.50;54.50;;;;;;5010757;28;20026;-66
2023/04/30 09:18:52;;;;;;;3.47;1.98;;;25.50;55.40;;;;;;5010456;28;20104;-65
2023/04/30 09:21:31;;;;;;;1.45;1.20;;;25.80;55.60;;;;;;5011186;28;20386;-65
2023/04/30 09:23:59;;;;;;;1.90;1.10;;;26.40;54.20;;;;;;5006860;28;20034;-66
2023/04/30 09:26:30;;;;;;;2.47;1.38;;;27.00;55.60;;;;;;5006588;28;20036;-64
2023/04/30 09:28:57;;;;;;;1.20;1.10;;;26.60;52.70;;;;;;5002105;28;20029;-65
2023/04/30 09:31:23;;;;;;;5.55;1.33;;;26.00;54.60;;;;;;4999890;28;20033;-66
2023/04/30 09:33:49;;;;;;;1.30;1.02;;;25.40;55.40;;;;;;5009401;28;20036;-66
2023/04/30 09:36:15;;;;;;;0.98;0.82;;;25.90;54.70;;;;;;5007415;28;20022;-65
2023/04/30 09:38:41;;;;;;;1.75;1.33;;;25.30;52.60;;;;;;5008835;28;20028;-65
2023/04/30 09:41:23;;;;;;;2.33;1.33;;;25.30;55.10;;;;;;5011423;28;20495;-65
2023/04/30 09:43:49;;;;;;;2.70;1.50;;;26.10;54.80;;;;;;4990149;28;20044;-65
2023/04/30 09:46:18;;;;;;;3.58;1.33;;;26.50;54.70;;;;;;5010360;28;20033;-65
2023/04/30 09:48:43;;;;;;;2.20;0.90;;;26.30;53.30;;;;;;5006387;28;20038;-65
2023/04/30 09:51:09;;;;;;;1.70;0.88;;;25.90;54.10;;;;;;5009016;28;20453;-66
2023/04/30 09:53:41;;;;;;;1.20;0.90;;;24.70;56.30;;;;;;5008881;28;20524;-65
2023/04/30 09:56:08;;;;;;;1.23;0.82;;;25.30;54.80;;;;;;5011878;28;20030;-64
2023/04/30 09:58:37;;;;;;;2.05;0.63;;;24.60;55.00;;;;;;5006661;28;20815;-65
2023/04/30 10:01:10;;;;;;;1.30;1.20;;;24.70;58.10;;;;;;5008423;28;20032;-64
2023/04/30 10:03:38;;;;;;;2.00;1.10;;;24.40;57.20;;;;;;5001098;28;20138;-64
2023/04/30 10:06:04;;;;;;;2.25;1.00;;;23.70;56.30;;;;;;5006301;28;21759;-65
2023/04/30 10:08:40;;;;;;;2.70;1.33;;;23.30;57.00;;;;;;5005147;28;20399;-64
2023/04/30 10:11:07;;;;;;;1.10;0.73;;;22.80;56.90;;;;;;4989417;28;20096;-63
2023/04/30 10:13:40;;;;;;;2.05;1.23;;;22.50;57.90;;;;;;5011397;28;20109;-64
2023/04/30 10:16:24;;;;;;;2.25;1.20;;;22.70;58.30;;;;;;5006687;28;20033;-63
2023/04/30 10:18:52;;;;;;;2.78;1.00;;;22.50;59.30;;;;;;5008122;28;20014;-65
2023/04/30 10:21:21;;;;;;;0.60;0.60;;;21.80;59.70;;;;;;5005375;28;20400;-64
2023/04/30 10:23:47;;;;;;;0.77;0.77;;;21.00;60.00;;;;;;5019204;28;20499;-65
2023/04/30 10:26:15;;;;;;;0.68;0.47;;;20.60;62.00;;;;;;5009920;28;20045;-65
2023/04/30 10:28:41;;;;;;;1.75;0.63;;;20.20;60.80;;;;;;5014279;28;20022;-64
2023/04/30 10:31:12;;;;;;;1.02;0.90;;;20.30;60.70;;;;;;4991050;28;20045;-64
2023/04/30 10:34:07;;;;;;;0.65;0.63;;;20.40;62.40;;;;;;5009702;28;20037;-64
2023/04/30 10:36:43;;;;;;;1.77;1.00;;;20.60;63.90;;;;;;5010166;28;20030;-64
2023/04/30 10:39:10;;;;;;;1.20;0.63;;;20.90;63.50;;;;;;4987612;28;20657;-65
2023/04/30 10:41:36;;;;;;;1.50;0.70;;;21.10;61.20;;;;;;4980959;28;20034;-64
2023/04/30 10:44:04;;;;;;;0.57;0.57;;;20.80;62.20;;;;;;5006538;28;20029;-64
2023/04/30 10:46:29;;;;;;;2.40;0.70;;;20.70;61.30;;;;;;5006039;28;20117;-64
2023/04/30 10:48:55;;;;;;;0.63;0.63;;;20.50;61.90;;;;;;4988558;28;20418;-64
2023/04/30 10:51:21;;;;;;;0.63;0.60;;;20.80;62.00;;;;;;5009490;28;20123;-64
2023/04/30 10:53:50;;;;;;;0.55;0.55;;;21.00;60.80;;;;;;4991024;28;20044;-64
2023/04/30 10:56:30;;;;;;;3.85;0.80;;;20.60;61.00;;;;;;5011158;28;20361;-65
2023/04/30 10:59:01;;;;;;;0.60;0.60;;;20.40;60.80;;;;;;5009538;28;20042;-64
2023/04/30 11:01:27;;;;;;;0.55;0.40;;;20.80;62.70;;;;;;5010560;28;20030;-64
2023/04/30 11:04:09;;;;;;;0.45;0.45;;;20.70;60.10;;;;;;5012421;28;20017;-65
2023/04/30 11:06:55;;;;;;;0.55;0.45;;;20.30;61.20;;;;;;5014325;28;20022;-65
2023/04/30 11:09:36;;;;;;;0.60;0.60;;;19.90;60.50;;;;;;5012869;28;20474;-64
2023/04/30 11:12:04;;;;;;;0.52;0.52;;;20.30;62.50;;;;;;5014132;28;20095;-64
2023/04/30 11:14:32;;;;;;;1.23;1.02;;;20.60;61.00;;;;;;5013623;28;20423;-64
2023/04/30 11:17:02;;;;;;;1.60;0.73;;;20.50;60.50;;;;;;5007986;28;20708;-64
2023/04/30 11:19:28;;;;;;;0.57;0.57;;;20.50;61.50;;;;;;5008785;28;20390;-63
2023/04/30 11:22:03;;;;;;;0.75;0.60;;;20.20;62.30;;;;;;5012906;28;20022;-64
2023/04/30 11:24:52;;;;;;;2.17;0.70;;;20.20;62.50;;;;;;5019229;28;20020;-66
2023/04/30 11:27:23;;;;;;;1.55;0.70;;;20.00;62.20;;;;;;5019452;28;20022;-66
2023/04/30 11:29:52;;;;;;;0.60;0.60;;;19.70;63.20;;;;;;5004430;28;20042;-65
2023/04/30 11:32:19;;;;;;;0.63;0.63;;;19.90;62.80;;;;;;5008256;28;20026;-63
2023/04/30 11:34:45;;;;;;;0.60;0.60;;;19.80;62.30;;;;;;4990038;28;20111;-66
2023/04/30 11:37:16;;;;;;;5.38;1.00;;;19.70;62.80;;;;;;4999228;28;20097;-66
2023/04/30 11:39:42;;;;;;;0.70;0.70;;;19.80;63.30;;;;;;4985401;28;20030;-65
2023/04/30 11:42:08;;;;;;;0.70;0.70;;;19.80;62.70;;;;;;4991775;28;20492;-64
2023/04/30 11:44:34;;;;;;;1.85;0.80;;;19.90;61.30;;;;;;4984223;28;20046;-63
2023/04/30 11:47:00;;;;;;;1.52;0.77;;;20.10;63.40;;;;;;4995241;28;20480;-64
2023/04/30 11:49:26;;;;;;;0.70;0.65;;;20.20;61.50;;;;;;4992218;28;20022;-64
2023/04/30 11:51:52;;;;;;;0.88;0.60;;;20.40;61.60;;;;;;4994241;28;20084;-65
2023/04/30 11:54:18;;;;;;;0.80;0.80;;;20.40;65.50;;;;;;4990690;28;20018;-65
2023/04/30 11:56:47;;;;;;;0.63;0.50;;;20.60;64.10;;;;;;4993066;28;20029;-65
2023/04/30 11:59:14;;;;;;;1.02;0.80;;;20.50;63.10;;;;;;4987246;28;20018;-64
2023/04/30 12:01:40;;;;;;;1.58;0.60;;;20.50;62.30;;;;;;4991600;28;20026;-65
2023/04/30 12:04:07;;;;;;;0.60;0.60;;;20.40;62.40;;;;;;4990350;28;20034;-65
2023/04/30 12:06:34;;;;;;;1.50;0.85;;;20.30;62.20;;;;;;4967439;28;20030;-64
2023/04/30 12:09:02;;;;;;;0.63;0.63;;;20.20;62.30;;;;;;4991272;28;20037;-65
2023/04/30 12:11:30;;;;;;;0.50;0.50;;;20.10;62.50;;;;;;4991932;28;20053;-64
2023/04/30 12:14:06;;;;;;;0.80;0.80;;;20.10;62.80;;;;;;4989493;28;20038;-64
2023/04/30 12:16:41;;;;;;;1.33;0.82;;;20.00;64.30;;;;;;4980032;28;20029;-64
2023/04/30 12:19:06;;;;;;;0.70;0.70;;;19.60;61.40;;;;;;4991573;28;20030;-66
2023/04/30 12:21:33;;;;;;;0.70;0.70;;;19.70;61.20;;;;;;4990414;28;20022;-66
2023/04/30 12:23:59;;;;;;;0.77;0.77;;;19.80;63.30;;;;;;4991207;28;20430;-66
2023/04/30 12:26:37;;;;;;;0.80;0.80;;;19.60;61.50;;;;;;4991232;28;20038;-66
2023/04/30 12:29:17;;;;;;;1.05;0.82;;;19.60;62.30;;;;;;4986256;28;20065;-63
2023/04/30 12:31:43;;;;;;;0.85;0.80;;;19.50;63.60;;;;;;4979710;28;20511;-64
2023/04/30 12:34:10;;;;;;;0.80;0.80;;;19.60;63.60;;;;;;4992434;28;20040;-64
2023/04/30 12:36:41;;;;;;;0.75;0.75;;;19.80;62.70;;;;;;4998953;28;20408;-64
2023/04/30 12:39:09;;;;;;;1.92;0.70;;;19.80;63.40;;;;;;5000763;28;20483;-64
2023/04/30 12:41:41;;;;;;;1.20;1.10;;;19.80;64.20;;;;;;4990763;28;20030;-64
2023/04/30 12:44:17;;;;;;;0.63;0.60;;;19.80;63.20;;;;;;4990364;28;20065;-63